<?xml version="1.0" encoding="UTF-8" standalone="no" ?>
<gpx xmlns="http://www.topografix.com/GPX/1/1" xmlns:xsi="http://www.w3.org/2001/XMLSchema-instance" xsi:schemaLocation="http://www.topografix.com/GPX/1/1 http://www.topografix.com/GPX/1/1/gpx.xsd" version="1.1" creator="VisuGPX - https://www.visugpx.com">
  <metadata>
    <name>Pontivy_Josselin</name>
  </metadata>
  <wpt lat="48.06613" lon="-2.97467">
    <ele>97.5</ele>
    <desc><![CDATA[5, Impasse Pablo Neruda - 56300 PONTIVY]]></desc>
    <type><![CDATA[hotel]]></type>
  </wpt>
  <wpt lat="47.95479" lon="-2.5473">
    <ele>65.5</ele>
    <desc><![CDATA[14, rue Saint-Michel - 56120 JOSSELIN]]></desc>
    <type><![CDATA[hotel]]></type>
  </wpt>
  <trk>
    <name><![CDATA[Nostang-Paimpont_VTT]]></name>
    <trkseg>
      <trkpt lat="48.0662" lon="-2.97401">
        <ele>91.3</ele>
      </trkpt>
      <trkpt lat="48.06557" lon="-2.97496">
        <ele>100.7</ele>
      </trkpt>
      <trkpt lat="48.06578" lon="-2.97577">
        <ele>104.3</ele>
      </trkpt>
      <trkpt lat="48.06628" lon="-2.97546">
        <ele>100.6</ele>
      </trkpt>
      <trkpt lat="48.06649" lon="-2.97551">
        <ele>100</ele>
      </trkpt>
      <trkpt lat="48.06673" lon="-2.97581">
        <ele>99.7</ele>
      </trkpt>
      <trkpt lat="48.06695" lon="-2.97601">
        <ele>98.3</ele>
      </trkpt>
      <trkpt lat="48.06763" lon="-2.97556">
        <ele>89.1</ele>
      </trkpt>
      <trkpt lat="48.06768" lon="-2.97487">
        <ele>84.3</ele>
      </trkpt>
      <trkpt lat="48.06696" lon="-2.97338">
        <ele>74.6</ele>
      </trkpt>
      <trkpt lat="48.06705" lon="-2.97286">
        <ele>70.8</ele>
      </trkpt>
      <trkpt lat="48.06774" lon="-2.97332">
        <ele>67.5</ele>
        <time>2021-03-17T14:14:23Z</time>
      </trkpt>
      <trkpt lat="48.06743" lon="-2.97133">
        <ele>58.2</ele>
      </trkpt>
      <trkpt lat="48.06717" lon="-2.9699">
        <ele>56.1</ele>
      </trkpt>
      <trkpt lat="48.06727" lon="-2.96948">
        <ele>56</ele>
      </trkpt>
      <trkpt lat="48.06824" lon="-2.96937">
        <ele>55.7</ele>
      </trkpt>
      <trkpt lat="48.0691" lon="-2.96871">
        <ele>55.8</ele>
      </trkpt>
      <trkpt lat="48.06907" lon="-2.96817">
        <ele>55.8</ele>
        <time>2021-03-17T14:14:43Z</time>
      </trkpt>
      <trkpt lat="48.06874" lon="-2.96767">
        <ele>56.5</ele>
        <time>2021-03-17T14:15:03Z</time>
      </trkpt>
      <trkpt lat="48.06935" lon="-2.96669">
        <ele>59.941</ele>
        <time>2021-03-17T14:15:23Z</time>
      </trkpt>
      <trkpt lat="48.07015" lon="-2.966">
        <ele>59.975</ele>
        <time>2021-03-17T14:15:43Z</time>
      </trkpt>
      <trkpt lat="48.07038" lon="-2.96652">
        <ele>59.251</ele>
        <time>2021-03-17T14:16:03Z</time>
      </trkpt>
      <trkpt lat="48.07153" lon="-2.96583">
        <ele>59.286</ele>
        <time>2021-03-17T14:16:23Z</time>
      </trkpt>
      <trkpt lat="48.07187" lon="-2.96618">
        <ele>58.76</ele>
        <time>2021-03-17T14:16:43Z</time>
      </trkpt>
      <trkpt lat="48.07222" lon="-2.96686">
        <ele>57.739</ele>
        <time>2021-03-17T14:17:03Z</time>
      </trkpt>
      <trkpt lat="48.07223" lon="-2.9669">
        <ele>58.201</ele>
        <time>2019-08-29T09:22:41Z</time>
      </trkpt>
      <trkpt lat="48.0724" lon="-2.96677">
        <ele>58.221</ele>
        <time>2019-08-29T09:23:01Z</time>
      </trkpt>
      <trkpt lat="48.07225" lon="-2.96598">
        <ele>59.108</ele>
        <time>2019-08-29T09:23:21Z</time>
      </trkpt>
      <trkpt lat="48.07232" lon="-2.96516">
        <ele>61.379</ele>
        <time>2019-08-29T09:23:41Z</time>
      </trkpt>
      <trkpt lat="48.07403" lon="-2.96383">
        <ele>60.241</ele>
        <time>2019-08-29T09:24:01Z</time>
      </trkpt>
      <trkpt lat="48.07441" lon="-2.96321">
        <ele>61.293</ele>
        <time>2019-08-29T09:24:21Z</time>
      </trkpt>
      <trkpt lat="48.0746" lon="-2.9625">
        <ele>61.489</ele>
        <time>2019-08-29T09:24:41Z</time>
      </trkpt>
      <trkpt lat="48.07431" lon="-2.96231">
        <ele>61.393</ele>
        <time>2019-08-29T09:25:01Z</time>
      </trkpt>
      <trkpt lat="48.07532" lon="-2.95879">
        <ele>63.339</ele>
        <time>2019-08-29T09:25:21Z</time>
      </trkpt>
      <trkpt lat="48.08278" lon="-2.9516">
        <ele>67.074</ele>
        <time>2019-08-29T09:25:41Z</time>
      </trkpt>
      <trkpt lat="48.08542" lon="-2.9472">
        <ele>70.028</ele>
        <time>2019-08-29T09:26:01Z</time>
      </trkpt>
      <trkpt lat="48.08561" lon="-2.94615">
        <ele>70.191</ele>
        <time>2019-08-29T09:26:21Z</time>
      </trkpt>
      <trkpt lat="48.08587" lon="-2.94297">
        <ele>71.581</ele>
        <time>2019-08-29T09:26:41Z</time>
      </trkpt>
      <trkpt lat="48.08618" lon="-2.94233">
        <ele>73.919</ele>
        <time>2019-08-29T09:27:01Z</time>
      </trkpt>
      <trkpt lat="48.08911" lon="-2.9375">
        <ele>73.808</ele>
        <time>2019-08-29T09:27:21Z</time>
      </trkpt>
      <trkpt lat="48.08977" lon="-2.93703">
        <ele>76.325</ele>
        <time>2019-08-29T09:27:41Z</time>
      </trkpt>
      <trkpt lat="48.09417" lon="-2.93619">
        <ele>76.077</ele>
        <time>2019-08-29T09:28:01Z</time>
      </trkpt>
      <trkpt lat="48.09468" lon="-2.93651">
        <ele>74.999</ele>
        <time>2019-08-29T09:28:21Z</time>
      </trkpt>
      <trkpt lat="48.0967" lon="-2.93658">
        <ele>78.685</ele>
        <time>2019-08-29T09:28:41Z</time>
      </trkpt>
      <trkpt lat="48.10142" lon="-2.93939">
        <ele>81.259</ele>
        <time>2019-08-29T09:29:01Z</time>
      </trkpt>
      <trkpt lat="48.10603" lon="-2.94104">
        <ele>85.465</ele>
        <time>2019-08-29T09:29:21Z</time>
      </trkpt>
      <trkpt lat="48.1066" lon="-2.94061">
        <ele>87.13</ele>
        <time>2019-08-29T09:29:41Z</time>
      </trkpt>
      <trkpt lat="48.10683" lon="-2.93986">
        <ele>86.154</ele>
        <time>2019-08-29T09:30:01Z</time>
      </trkpt>
      <trkpt lat="48.10673" lon="-2.93924">
        <ele>88.129</ele>
        <time>2019-08-29T09:30:21Z</time>
      </trkpt>
      <trkpt lat="48.10659" lon="-2.93619">
        <ele>94.7</ele>
        <time>2019-08-29T09:30:41Z</time>
      </trkpt>
      <trkpt lat="48.10679" lon="-2.93342">
        <ele>97.32</ele>
        <time>2019-08-29T09:31:01Z</time>
      </trkpt>
      <trkpt lat="48.10639" lon="-2.92937">
        <ele>99.008</ele>
        <time>2019-08-29T09:31:21Z</time>
      </trkpt>
      <trkpt lat="48.10594" lon="-2.92776">
        <ele>101.018</ele>
        <time>2019-08-29T09:31:41Z</time>
      </trkpt>
      <trkpt lat="48.10572" lon="-2.92613">
        <ele>101.94</ele>
        <time>2019-08-29T09:32:01Z</time>
      </trkpt>
      <trkpt lat="48.10633" lon="-2.92117">
        <ele>118.252</ele>
        <time>2019-08-29T09:32:21Z</time>
      </trkpt>
      <trkpt lat="48.10623" lon="-2.91894">
        <ele>126.878</ele>
        <time>2019-08-29T09:32:41Z</time>
      </trkpt>
      <trkpt lat="48.10627" lon="-2.9168">
        <ele>113.352</ele>
        <time>2019-08-29T09:33:01Z</time>
      </trkpt>
      <trkpt lat="48.10622" lon="-2.91583">
        <ele>107.038</ele>
        <time>2019-08-29T09:33:21Z</time>
      </trkpt>
      <trkpt lat="48.10579" lon="-2.91394">
        <ele>105.543</ele>
        <time>2019-08-29T09:33:41Z</time>
      </trkpt>
      <trkpt lat="48.10589" lon="-2.91287">
        <ele>105.437</ele>
        <time>2019-08-29T09:34:01Z</time>
      </trkpt>
      <trkpt lat="48.10643" lon="-2.91192">
        <ele>108.914</ele>
        <time>2019-08-29T09:34:21Z</time>
      </trkpt>
      <trkpt lat="48.10703" lon="-2.91156">
        <ele>107.554</ele>
        <time>2019-08-29T09:34:41Z</time>
      </trkpt>
      <trkpt lat="48.10964" lon="-2.9113">
        <ele>104.509</ele>
        <time>2019-08-29T09:35:01Z</time>
      </trkpt>
      <trkpt lat="48.11076" lon="-2.91169">
        <ele>109.808</ele>
        <time>2019-08-29T09:35:21Z</time>
      </trkpt>
      <trkpt lat="48.11069" lon="-2.91242">
        <ele>111.887</ele>
        <time>2019-08-29T09:35:41Z</time>
      </trkpt>
      <trkpt lat="48.11185" lon="-2.91233">
        <ele>108.819</ele>
        <time>2019-08-29T09:36:01Z</time>
      </trkpt>
      <trkpt lat="48.11228" lon="-2.91195">
        <ele>110.251</ele>
        <time>2019-08-29T09:36:21Z</time>
      </trkpt>
      <trkpt lat="48.11254" lon="-2.91156">
        <ele>110.517</ele>
        <time>2019-08-29T09:36:41Z</time>
      </trkpt>
      <trkpt lat="48.11275" lon="-2.91053">
        <ele>110.921</ele>
        <time>2019-08-29T09:37:01Z</time>
      </trkpt>
      <trkpt lat="48.11344" lon="-2.90935">
        <ele>112.677</ele>
        <time>2019-08-29T09:37:21Z</time>
      </trkpt>
      <trkpt lat="48.11453" lon="-2.90598">
        <ele>110.622</ele>
        <time>2019-08-29T09:37:41Z</time>
      </trkpt>
      <trkpt lat="48.11445" lon="-2.90529">
        <ele>110.176</ele>
        <time>2019-08-29T09:38:01Z</time>
      </trkpt>
      <trkpt lat="48.11457" lon="-2.90476">
        <ele>109.074</ele>
        <time>2019-08-29T09:38:21Z</time>
      </trkpt>
      <trkpt lat="48.11506" lon="-2.90416">
        <ele>110.256</ele>
        <time>2019-08-29T09:38:41Z</time>
      </trkpt>
      <trkpt lat="48.11523" lon="-2.90321">
        <ele>110.821</ele>
        <time>2019-08-29T09:39:01Z</time>
      </trkpt>
      <trkpt lat="48.11395" lon="-2.89508">
        <ele>120.908</ele>
        <time>2019-08-29T09:39:21Z</time>
      </trkpt>
      <trkpt lat="48.11392" lon="-2.89345">
        <ele>126.193</ele>
        <time>2019-08-29T09:39:41Z</time>
      </trkpt>
      <trkpt lat="48.11407" lon="-2.89261">
        <ele>126.325</ele>
        <time>2019-08-29T09:40:01Z</time>
      </trkpt>
      <trkpt lat="48.11433" lon="-2.89173">
        <ele>127.847</ele>
        <time>2019-08-29T09:40:21Z</time>
      </trkpt>
      <trkpt lat="48.11458" lon="-2.88987">
        <ele>130.083</ele>
        <time>2019-08-29T09:40:41Z</time>
      </trkpt>
      <trkpt lat="48.11438" lon="-2.88957">
        <ele>130.097</ele>
        <time>2019-08-29T09:41:01Z</time>
      </trkpt>
      <trkpt lat="48.11423" lon="-2.88783">
        <ele>135.973</ele>
        <time>2019-08-29T09:41:21Z</time>
      </trkpt>
      <trkpt lat="48.11454" lon="-2.88448">
        <ele>132.198</ele>
        <time>2019-08-29T09:41:41Z</time>
      </trkpt>
      <trkpt lat="48.11563" lon="-2.88115">
        <ele>132.092</ele>
        <time>2019-08-29T09:42:01Z</time>
      </trkpt>
      <trkpt lat="48.11666" lon="-2.88019">
        <ele>134.351</ele>
        <time>2019-08-29T09:42:21Z</time>
      </trkpt>
      <trkpt lat="48.11699" lon="-2.87935">
        <ele>130.901</ele>
        <time>2019-08-29T09:42:41Z</time>
      </trkpt>
      <trkpt lat="48.11805" lon="-2.87392">
        <ele>133.011</ele>
        <time>2019-08-29T09:43:01Z</time>
      </trkpt>
      <trkpt lat="48.11761" lon="-2.87158">
        <ele>132.708</ele>
        <time>2019-08-29T09:43:21Z</time>
      </trkpt>
      <trkpt lat="48.11792" lon="-2.86862">
        <ele>131.061</ele>
        <time>2019-08-29T09:43:41Z</time>
      </trkpt>
      <trkpt lat="48.11832" lon="-2.86706">
        <ele>131.013</ele>
        <time>2019-08-29T09:44:01Z</time>
      </trkpt>
      <trkpt lat="48.1196" lon="-2.86502">
        <ele>130.975</ele>
        <time>2019-08-29T09:44:21Z</time>
      </trkpt>
      <trkpt lat="48.11978" lon="-2.86401">
        <ele>133.221</ele>
        <time>2019-08-29T09:44:41Z</time>
      </trkpt>
      <trkpt lat="48.11971" lon="-2.86302">
        <ele>134.095</ele>
        <time>2019-08-29T09:45:01Z</time>
      </trkpt>
      <trkpt lat="48.11923" lon="-2.86178">
        <ele>133.331</ele>
        <time>2019-08-29T09:45:21Z</time>
      </trkpt>
      <trkpt lat="48.11918" lon="-2.86096">
        <ele>132.036</ele>
        <time>2019-08-29T09:45:41Z</time>
      </trkpt>
      <trkpt lat="48.11937" lon="-2.86013">
        <ele>132.77</ele>
        <time>2019-08-29T09:46:01Z</time>
      </trkpt>
      <trkpt lat="48.11917" lon="-2.86103">
        <ele>132.008</ele>
        <time>2016-06-15T17:53:34Z</time>
      </trkpt>
      <trkpt lat="48.11991" lon="-2.85761">
        <ele>133.5</ele>
      </trkpt>
      <trkpt lat="48.119" lon="-2.85426">
        <ele>131.1</ele>
      </trkpt>
      <trkpt lat="48.11872" lon="-2.85078">
        <ele>132.4</ele>
      </trkpt>
      <trkpt lat="48.11785" lon="-2.84984">
        <ele>132.8</ele>
      </trkpt>
      <trkpt lat="48.11542" lon="-2.84955">
        <ele>133.6</ele>
      </trkpt>
      <trkpt lat="48.11433" lon="-2.84899">
        <ele>135</ele>
      </trkpt>
      <trkpt lat="48.11351" lon="-2.84678">
        <ele>142.7</ele>
      </trkpt>
      <trkpt lat="48.11331" lon="-2.84398">
        <ele>144</ele>
      </trkpt>
      <trkpt lat="48.11661" lon="-2.83654">
        <ele>143.5</ele>
      </trkpt>
      <trkpt lat="48.11679" lon="-2.83533">
        <ele>141.7</ele>
      </trkpt>
      <trkpt lat="48.11637" lon="-2.83442">
        <ele>135.6</ele>
      </trkpt>
      <trkpt lat="48.11655" lon="-2.83377">
        <ele>134.5</ele>
      </trkpt>
      <trkpt lat="48.11514" lon="-2.82987">
        <ele>132.3</ele>
      </trkpt>
      <trkpt lat="48.11438" lon="-2.82958">
        <ele>129</ele>
      </trkpt>
      <trkpt lat="48.11396" lon="-2.82889">
        <ele>129.3</ele>
      </trkpt>
      <trkpt lat="48.11396" lon="-2.82815">
        <ele>131</ele>
      </trkpt>
      <trkpt lat="48.11455" lon="-2.82717">
        <ele>131.1</ele>
      </trkpt>
      <trkpt lat="48.1154" lon="-2.82707">
        <ele>131.7</ele>
      </trkpt>
      <trkpt lat="48.11572" lon="-2.8258">
        <ele>131.2</ele>
      </trkpt>
      <trkpt lat="48.11525" lon="-2.82297">
        <ele>130.8</ele>
      </trkpt>
      <trkpt lat="48.11433" lon="-2.82031">
        <ele>131.9</ele>
      </trkpt>
      <trkpt lat="48.11581" lon="-2.81933">
        <ele>140.9</ele>
      </trkpt>
      <trkpt lat="48.11824" lon="-2.81894">
        <ele>149.4</ele>
      </trkpt>
      <trkpt lat="48.12044" lon="-2.81985">
        <ele>143.3</ele>
      </trkpt>
      <trkpt lat="48.12201" lon="-2.81994">
        <ele>134.593</ele>
        <time>2016-06-15T17:39:54Z</time>
      </trkpt>
      <trkpt lat="48.12169" lon="-2.81779">
        <ele>134.651</ele>
        <time>2016-06-15T17:39:34Z</time>
      </trkpt>
      <trkpt lat="48.12185" lon="-2.81698">
        <ele>131.419</ele>
        <time>2016-06-15T17:39:14Z</time>
      </trkpt>
      <trkpt lat="48.12202" lon="-2.81663">
        <ele>130.062</ele>
        <time>2016-06-15T17:38:34Z</time>
      </trkpt>
      <trkpt lat="48.12174" lon="-2.8158">
        <ele>133.595</ele>
        <time>2016-06-15T17:38:14Z</time>
      </trkpt>
      <trkpt lat="48.12096" lon="-2.81517">
        <ele>132.258</ele>
        <time>2016-06-15T17:37:54Z</time>
      </trkpt>
      <trkpt lat="48.12053" lon="-2.81494">
        <ele>132.608</ele>
        <time>2016-06-15T17:37:34Z</time>
      </trkpt>
      <trkpt lat="48.1194" lon="-2.81416">
        <ele>132.314</ele>
        <time>2016-06-15T17:37:14Z</time>
      </trkpt>
      <trkpt lat="48.11864" lon="-2.81277">
        <ele>137.904</ele>
        <time>2016-06-15T17:36:54Z</time>
      </trkpt>
      <trkpt lat="48.1184" lon="-2.81148">
        <ele>137.924</ele>
        <time>2016-06-15T17:36:34Z</time>
      </trkpt>
      <trkpt lat="48.11821" lon="-2.80992">
        <ele>133.379</ele>
        <time>2016-06-15T17:36:14Z</time>
      </trkpt>
      <trkpt lat="48.11747" lon="-2.80886">
        <ele>132.173</ele>
        <time>2016-06-15T17:35:54Z</time>
      </trkpt>
      <trkpt lat="48.11712" lon="-2.80803">
        <ele>136.421</ele>
        <time>2016-06-15T17:35:34Z</time>
      </trkpt>
      <trkpt lat="48.11711" lon="-2.80702">
        <ele>137.099</ele>
        <time>2016-06-15T17:35:14Z</time>
      </trkpt>
      <trkpt lat="48.1174" lon="-2.80603">
        <ele>132.577</ele>
        <time>2016-06-15T17:34:54Z</time>
      </trkpt>
      <trkpt lat="48.1175" lon="-2.80393">
        <ele>133.772</ele>
        <time>2016-06-15T17:34:34Z</time>
      </trkpt>
      <trkpt lat="48.11694" lon="-2.80208">
        <ele>136.115</ele>
        <time>2016-06-15T17:34:14Z</time>
      </trkpt>
      <trkpt lat="48.11626" lon="-2.80161">
        <ele>135.928</ele>
        <time>2016-06-15T17:33:54Z</time>
      </trkpt>
      <trkpt lat="48.11563" lon="-2.80095">
        <ele>130.808</ele>
        <time>2016-06-15T17:33:34Z</time>
      </trkpt>
      <trkpt lat="48.11331" lon="-2.7979">
        <ele>133.914</ele>
        <time>2016-06-15T17:33:14Z</time>
      </trkpt>
      <trkpt lat="48.11258" lon="-2.79771">
        <ele>134.068</ele>
        <time>2016-06-15T17:32:54Z</time>
      </trkpt>
      <trkpt lat="48.1121" lon="-2.7982">
        <ele>132.027</ele>
        <time>2016-06-15T17:32:34Z</time>
      </trkpt>
      <trkpt lat="48.11205" lon="-2.79927">
        <ele>133.615</ele>
        <time>2016-06-15T17:32:14Z</time>
      </trkpt>
      <trkpt lat="48.11227" lon="-2.80032">
        <ele>133.349</ele>
        <time>2016-06-15T17:31:54Z</time>
      </trkpt>
      <trkpt lat="48.11208" lon="-2.80125">
        <ele>134.277</ele>
        <time>2016-06-15T17:31:34Z</time>
      </trkpt>
      <trkpt lat="48.11217" lon="-2.80281">
        <ele>133.075</ele>
        <time>2016-06-15T17:31:14Z</time>
      </trkpt>
      <trkpt lat="48.11254" lon="-2.80496">
        <ele>133.723</ele>
        <time>2016-06-15T17:30:54Z</time>
      </trkpt>
      <trkpt lat="48.11138" lon="-2.80889">
        <ele>135.078</ele>
        <time>2016-06-15T17:30:34Z</time>
      </trkpt>
      <trkpt lat="48.11129" lon="-2.81082">
        <ele>135.061</ele>
        <time>2016-06-15T17:30:14Z</time>
      </trkpt>
      <trkpt lat="48.11132" lon="-2.81161">
        <ele>134.864</ele>
        <time>2016-06-15T17:29:54Z</time>
      </trkpt>
      <trkpt lat="48.11116" lon="-2.81197">
        <ele>132.7</ele>
      </trkpt>
      <trkpt lat="48.11049" lon="-2.81197">
        <ele>128.5</ele>
      </trkpt>
      <trkpt lat="48.11004" lon="-2.81227">
        <ele>122.8</ele>
      </trkpt>
      <trkpt lat="48.10927" lon="-2.81205">
        <ele>117.7</ele>
        <time>2016-06-15T17:29:34Z</time>
      </trkpt>
      <trkpt lat="48.10884" lon="-2.81232">
        <ele>111.417</ele>
        <time>2016-06-15T17:29:14Z</time>
      </trkpt>
      <trkpt lat="48.10823" lon="-2.81251">
        <ele>108.425</ele>
        <time>2016-06-15T17:28:54Z</time>
      </trkpt>
      <trkpt lat="48.10768" lon="-2.81324">
        <ele>99.383</ele>
        <time>2016-06-15T17:28:34Z</time>
      </trkpt>
      <trkpt lat="48.10631" lon="-2.81034">
        <ele>99.721</ele>
        <time>2016-06-15T17:28:14Z</time>
      </trkpt>
      <trkpt lat="48.10589" lon="-2.80844">
        <ele>99.475</ele>
        <time>2016-06-15T17:27:54Z</time>
      </trkpt>
      <trkpt lat="48.10613" lon="-2.80283">
        <ele>91.323</ele>
        <time>2016-06-15T17:27:34Z</time>
      </trkpt>
      <trkpt lat="48.10569" lon="-2.79947">
        <ele>93.031</ele>
        <time>2016-06-15T17:27:14Z</time>
      </trkpt>
      <trkpt lat="48.10528" lon="-2.79633">
        <ele>89.829</ele>
        <time>2016-06-15T17:26:54Z</time>
      </trkpt>
      <trkpt lat="48.10497" lon="-2.79496">
        <ele>84.934</ele>
        <time>2016-06-15T17:26:34Z</time>
      </trkpt>
      <trkpt lat="48.10449" lon="-2.79047">
        <ele>80.887</ele>
        <time>2016-06-15T17:26:14Z</time>
      </trkpt>
      <trkpt lat="48.1038" lon="-2.79088">
        <ele>81.06</ele>
        <time>2016-06-15T17:25:54Z</time>
      </trkpt>
      <trkpt lat="48.10257" lon="-2.79127">
        <ele>87.908</ele>
        <time>2016-06-15T17:25:34Z</time>
      </trkpt>
      <trkpt lat="48.10165" lon="-2.79174">
        <ele>89.014</ele>
        <time>2016-06-15T17:25:14Z</time>
      </trkpt>
      <trkpt lat="48.10111" lon="-2.79159">
        <ele>96.022</ele>
        <time>2016-06-15T17:24:54Z</time>
      </trkpt>
      <trkpt lat="48.10073" lon="-2.7911">
        <ele>96.742</ele>
        <time>2016-06-15T17:24:34Z</time>
      </trkpt>
      <trkpt lat="48.1002" lon="-2.79082">
        <ele>97.399</ele>
        <time>2016-06-15T17:24:14Z</time>
      </trkpt>
      <trkpt lat="48.09904" lon="-2.7899">
        <ele>99.913</ele>
        <time>2016-06-15T17:23:54Z</time>
      </trkpt>
      <trkpt lat="48.0984" lon="-2.78992">
        <ele>101.661</ele>
        <time>2016-06-15T17:23:34Z</time>
      </trkpt>
      <trkpt lat="48.0981" lon="-2.79013">
        <ele>103.499</ele>
        <time>2016-06-15T17:23:14Z</time>
      </trkpt>
      <trkpt lat="48.09682" lon="-2.78936">
        <ele>102.077</ele>
        <time>2016-06-15T17:22:54Z</time>
      </trkpt>
      <trkpt lat="48.09534" lon="-2.78951">
        <ele>111.232</ele>
        <time>2016-06-15T17:22:34Z</time>
      </trkpt>
      <trkpt lat="48.09361" lon="-2.7879">
        <ele>108.925</ele>
        <time>2016-06-15T17:22:14Z</time>
      </trkpt>
      <trkpt lat="48.09287" lon="-2.78779">
        <ele>115.328</ele>
        <time>2016-06-15T17:21:54Z</time>
      </trkpt>
      <trkpt lat="48.09228" lon="-2.78704">
        <ele>115.308</ele>
        <time>2016-06-15T17:21:34Z</time>
      </trkpt>
      <trkpt lat="48.09175" lon="-2.78713">
        <ele>114.72</ele>
        <time>2016-06-15T17:21:14Z</time>
      </trkpt>
      <trkpt lat="48.0913" lon="-2.78702">
        <ele>113.5</ele>
        <time>2016-06-15T17:20:54Z</time>
      </trkpt>
      <trkpt lat="48.09094" lon="-2.78747">
        <ele>113.329</ele>
        <time>2016-06-15T17:20:34Z</time>
      </trkpt>
      <trkpt lat="48.09041" lon="-2.78721">
        <ele>109.523</ele>
        <time>2016-06-15T17:20:14Z</time>
      </trkpt>
      <trkpt lat="48.09026" lon="-2.78728">
        <ele>109.137</ele>
        <time>2016-06-15T17:19:54Z</time>
      </trkpt>
      <trkpt lat="48.08947" lon="-2.78582">
        <ele>100.255</ele>
        <time>2016-06-15T17:19:34Z</time>
      </trkpt>
      <trkpt lat="48.0874" lon="-2.78708">
        <ele>88.863</ele>
        <time>2016-06-15T17:19:14Z</time>
      </trkpt>
      <trkpt lat="48.0863" lon="-2.78732">
        <ele>88.091</ele>
        <time>2016-06-15T17:18:54Z</time>
      </trkpt>
      <trkpt lat="48.08604" lon="-2.78749">
        <ele>88.046</ele>
        <time>2016-06-15T17:18:34Z</time>
      </trkpt>
      <trkpt lat="48.08599" lon="-2.78861">
        <ele>90.439</ele>
        <time>2016-06-15T17:18:14Z</time>
      </trkpt>
      <trkpt lat="48.08563" lon="-2.78929">
        <ele>96.762</ele>
        <time>2016-06-15T17:17:54Z</time>
      </trkpt>
      <trkpt lat="48.0851" lon="-2.78992">
        <ele>101.708</ele>
        <time>2016-06-15T17:17:34Z</time>
      </trkpt>
      <trkpt lat="48.08289" lon="-2.78771">
        <ele>93.411</ele>
        <time>2016-06-15T17:17:14Z</time>
      </trkpt>
      <trkpt lat="48.0821" lon="-2.78794">
        <ele>94.383</ele>
        <time>2016-06-15T17:16:54Z</time>
      </trkpt>
      <trkpt lat="48.08211" lon="-2.7861">
        <ele>90.062</ele>
        <time>2016-06-15T17:16:34Z</time>
      </trkpt>
      <trkpt lat="48.08279" lon="-2.78451">
        <ele>83.04</ele>
        <time>2016-06-15T17:16:14Z</time>
      </trkpt>
      <trkpt lat="48.08315" lon="-2.78337">
        <ele>83.464</ele>
        <time>2016-06-15T17:15:54Z</time>
      </trkpt>
      <trkpt lat="48.08322" lon="-2.78288">
        <ele>84.292</ele>
        <time>2016-06-15T17:15:34Z</time>
      </trkpt>
      <trkpt lat="48.08319" lon="-2.78142">
        <ele>82.18</ele>
        <time>2016-06-15T17:15:14Z</time>
      </trkpt>
      <trkpt lat="48.08346" lon="-2.78123">
        <ele>82.738</ele>
        <time>2016-06-15T17:14:54Z</time>
      </trkpt>
      <trkpt lat="48.08405" lon="-2.78007">
        <ele>83.363</ele>
        <time>2016-06-15T17:14:34Z</time>
      </trkpt>
      <trkpt lat="48.08411" lon="-2.77968">
        <ele>81.366</ele>
        <time>2016-06-15T17:14:14Z</time>
      </trkpt>
      <trkpt lat="48.08432" lon="-2.77945">
        <ele>80.699</ele>
        <time>2016-06-15T17:13:54Z</time>
      </trkpt>
      <trkpt lat="48.08441" lon="-2.77891">
        <ele>78.708</ele>
        <time>2016-06-15T17:13:34Z</time>
      </trkpt>
      <trkpt lat="48.0849" lon="-2.77805">
        <ele>77.418</ele>
        <time>2016-06-15T17:13:14Z</time>
      </trkpt>
      <trkpt lat="48.08424" lon="-2.77781">
        <ele>77.717</ele>
        <time>2016-06-15T17:12:54Z</time>
      </trkpt>
      <trkpt lat="48.08352" lon="-2.77728">
        <ele>81.936</ele>
        <time>2016-06-15T17:12:34Z</time>
      </trkpt>
      <trkpt lat="48.08432" lon="-2.77582">
        <ele>85.566</ele>
        <time>2016-06-15T17:12:14Z</time>
      </trkpt>
      <trkpt lat="48.08517" lon="-2.77483">
        <ele>86.27</ele>
        <time>2016-06-15T17:11:54Z</time>
      </trkpt>
      <trkpt lat="48.08583" lon="-2.7743">
        <ele>78.338</ele>
        <time>2016-06-15T17:11:34Z</time>
      </trkpt>
      <trkpt lat="48.08591" lon="-2.77378">
        <ele>77.226</ele>
        <time>2016-06-15T17:11:14Z</time>
      </trkpt>
      <trkpt lat="48.0859" lon="-2.77342">
        <ele>75.664</ele>
        <time>2016-06-15T17:10:54Z</time>
      </trkpt>
      <trkpt lat="48.08537" lon="-2.77256">
        <ele>83.779</ele>
        <time>2016-06-15T17:10:34Z</time>
      </trkpt>
      <trkpt lat="48.08193" lon="-2.76468">
        <ele>68.242</ele>
        <time>2016-06-15T17:10:14Z</time>
      </trkpt>
      <trkpt lat="48.082" lon="-2.76436">
        <ele>65.165</ele>
        <time>2016-06-15T17:09:54Z</time>
      </trkpt>
      <trkpt lat="48.08101" lon="-2.76361">
        <ele>73.708</ele>
        <time>2016-06-15T17:09:34Z</time>
      </trkpt>
      <trkpt lat="48.08009" lon="-2.76198">
        <ele>67.025</ele>
        <time>2016-06-15T17:09:14Z</time>
      </trkpt>
      <trkpt lat="48.07876" lon="-2.76024">
        <ele>66.523</ele>
        <time>2016-06-15T17:08:54Z</time>
      </trkpt>
      <trkpt lat="48.07622" lon="-2.75795">
        <ele>66.097</ele>
        <time>2016-06-15T17:08:34Z</time>
      </trkpt>
      <trkpt lat="48.07539" lon="-2.75689">
        <ele>65.184</ele>
        <time>2016-06-15T17:08:14Z</time>
      </trkpt>
      <trkpt lat="48.07422" lon="-2.75676">
        <ele>65.698</ele>
        <time>2016-06-15T17:07:54Z</time>
      </trkpt>
      <trkpt lat="48.07371" lon="-2.75631">
        <ele>65.476</ele>
        <time>2016-06-15T17:07:34Z</time>
      </trkpt>
      <trkpt lat="48.07337" lon="-2.75666">
        <ele>66.054</ele>
        <time>2016-06-15T17:07:14Z</time>
      </trkpt>
      <trkpt lat="48.07155" lon="-2.75526">
        <ele>65.072</ele>
        <time>2016-06-15T17:06:54Z</time>
      </trkpt>
      <trkpt lat="48.07026" lon="-2.75286">
        <ele>67.377</ele>
        <time>2016-06-15T17:06:34Z</time>
      </trkpt>
      <trkpt lat="48.06991" lon="-2.75039">
        <ele>64.97</ele>
        <time>2016-06-15T17:06:14Z</time>
      </trkpt>
      <trkpt lat="48.06933" lon="-2.74917">
        <ele>66.873</ele>
        <time>2016-06-15T17:05:54Z</time>
      </trkpt>
      <trkpt lat="48.06861" lon="-2.7499">
        <ele>66.408</ele>
        <time>2016-06-15T17:05:34Z</time>
      </trkpt>
      <trkpt lat="48.06819" lon="-2.75009">
        <ele>65.305</ele>
        <time>2016-06-15T17:04:54Z</time>
      </trkpt>
      <trkpt lat="48.06806" lon="-2.74934">
        <ele>71.979</ele>
        <time>2016-06-15T17:04:34Z</time>
      </trkpt>
      <trkpt lat="48.06722" lon="-2.7487">
        <ele>71.182</ele>
        <time>2016-06-15T17:04:14Z</time>
      </trkpt>
      <trkpt lat="48.06739" lon="-2.74812">
        <ele>78.336</ele>
        <time>2016-06-15T17:03:54Z</time>
      </trkpt>
      <trkpt lat="48.06768" lon="-2.74795">
        <ele>83.324</ele>
        <time>2016-06-15T17:03:34Z</time>
      </trkpt>
      <trkpt lat="48.06854" lon="-2.74619">
        <ele>98.052</ele>
        <time>2016-06-15T17:03:14Z</time>
      </trkpt>
      <trkpt lat="48.0693" lon="-2.74505">
        <ele>101.23</ele>
        <time>2016-06-15T17:02:54Z</time>
      </trkpt>
      <trkpt lat="48.06908" lon="-2.74468">
        <ele>103.075</ele>
        <time>2016-06-15T17:02:34Z</time>
      </trkpt>
      <trkpt lat="48.06804" lon="-2.74061">
        <ele>90.288</ele>
        <time>2016-06-15T17:02:14Z</time>
      </trkpt>
      <trkpt lat="48.06739" lon="-2.7355">
        <ele>92.271</ele>
        <time>2016-06-15T17:01:54Z</time>
      </trkpt>
      <trkpt lat="48.06695" lon="-2.73456">
        <ele>91.008</ele>
        <time>2016-06-15T17:01:34Z</time>
      </trkpt>
      <trkpt lat="48.0663" lon="-2.73387">
        <ele>86.717</ele>
        <time>2016-06-15T17:01:14Z</time>
      </trkpt>
      <trkpt lat="48.06544" lon="-2.73366">
        <ele>78.352</ele>
        <time>2016-06-15T17:00:54Z</time>
      </trkpt>
      <trkpt lat="48.06551" lon="-2.73329">
        <ele>75.258</ele>
        <time>2016-06-15T17:00:34Z</time>
      </trkpt>
      <trkpt lat="48.06609" lon="-2.73239">
        <ele>71.679</ele>
        <time>2016-06-15T17:00:14Z</time>
      </trkpt>
      <trkpt lat="48.06603" lon="-2.73217">
        <ele>69.523</ele>
        <time>2016-06-15T16:59:54Z</time>
      </trkpt>
      <trkpt lat="48.06564" lon="-2.73183">
        <ele>70.711</ele>
        <time>2016-06-15T16:59:34Z</time>
      </trkpt>
      <trkpt lat="48.06561" lon="-2.72902">
        <ele>89.979</ele>
        <time>2016-06-15T16:59:14Z</time>
      </trkpt>
      <trkpt lat="48.06411" lon="-2.72653">
        <ele>97.287</ele>
        <time>2016-06-15T16:58:54Z</time>
      </trkpt>
      <trkpt lat="48.06213" lon="-2.72537">
        <ele>96.722</ele>
        <time>2016-06-15T16:58:34Z</time>
      </trkpt>
      <trkpt lat="48.06167" lon="-2.72548">
        <ele>96.355</ele>
        <time>2016-06-15T16:58:14Z</time>
      </trkpt>
      <trkpt lat="48.06125" lon="-2.72769">
        <ele>90.568</ele>
        <time>2016-06-15T16:57:54Z</time>
      </trkpt>
      <trkpt lat="48.0584" lon="-2.72668">
        <ele>97.008</ele>
        <time>2016-06-15T16:57:34Z</time>
      </trkpt>
      <trkpt lat="48.0541" lon="-2.72331">
        <ele>92.314</ele>
        <time>2016-06-15T16:57:14Z</time>
      </trkpt>
      <trkpt lat="48.05219" lon="-2.72329">
        <ele>97.904</ele>
        <time>2016-06-15T16:56:54Z</time>
      </trkpt>
      <trkpt lat="48.05146" lon="-2.72514">
        <ele>87.824</ele>
        <time>2016-06-15T16:56:34Z</time>
      </trkpt>
      <trkpt lat="48.049" lon="-2.72677">
        <ele>65.353</ele>
        <time>2016-06-15T16:56:14Z</time>
      </trkpt>
      <trkpt lat="48.04829" lon="-2.7276">
        <ele>58.157</ele>
        <time>2016-06-15T16:55:54Z</time>
      </trkpt>
      <trkpt lat="48.04126" lon="-2.71486">
        <ele>62.885</ele>
        <time>2016-06-15T16:55:34Z</time>
      </trkpt>
      <trkpt lat="48.03781" lon="-2.71155">
        <ele>63.983</ele>
        <time>2016-06-15T16:55:14Z</time>
      </trkpt>
      <trkpt lat="48.03746" lon="-2.71269">
        <ele>59.051</ele>
        <time>2016-06-15T16:54:54Z</time>
      </trkpt>
      <trkpt lat="48.03753" lon="-2.71329">
        <ele>56.236</ele>
        <time>2016-06-15T16:54:34Z</time>
      </trkpt>
      <trkpt lat="48.038" lon="-2.71359">
        <ele>56.789</ele>
        <time>2016-06-15T16:54:14Z</time>
      </trkpt>
      <trkpt lat="48.03754" lon="-2.71475">
        <ele>55.292</ele>
        <time>2016-06-15T16:53:54Z</time>
      </trkpt>
      <trkpt lat="48.03718" lon="-2.71698">
        <ele>78.008</ele>
        <time>2016-06-15T16:53:34Z</time>
      </trkpt>
      <trkpt lat="48.03662" lon="-2.71636">
        <ele>80.626</ele>
        <time>2016-06-15T16:53:14Z</time>
      </trkpt>
      <trkpt lat="48.03602" lon="-2.71542">
        <ele>84.342</ele>
        <time>2016-06-15T16:52:54Z</time>
      </trkpt>
      <trkpt lat="48.03407" lon="-2.7119">
        <ele>58.772</ele>
        <time>2016-06-15T16:52:14Z</time>
      </trkpt>
      <trkpt lat="48.03222" lon="-2.7108">
        <ele>61.616</ele>
        <time>2016-06-15T16:51:54Z</time>
      </trkpt>
      <trkpt lat="48.03107" lon="-2.70977">
        <ele>59.964</ele>
        <time>2016-06-15T16:51:34Z</time>
      </trkpt>
      <trkpt lat="48.02987" lon="-2.70947">
        <ele>67.872</ele>
        <time>2016-06-15T16:51:14Z</time>
      </trkpt>
      <trkpt lat="48.02829" lon="-2.70934">
        <ele>80.11</ele>
        <time>2016-06-15T16:50:54Z</time>
      </trkpt>
      <trkpt lat="48.02688" lon="-2.70827">
        <ele>74.615</ele>
        <time>2016-06-15T16:50:34Z</time>
      </trkpt>
      <trkpt lat="48.02553" lon="-2.70694">
        <ele>66.298</ele>
        <time>2016-06-15T16:50:14Z</time>
      </trkpt>
      <trkpt lat="48.02616" lon="-2.70552">
        <ele>64.931</ele>
        <time>2016-06-15T16:49:54Z</time>
      </trkpt>
      <trkpt lat="48.02623" lon="-2.70415">
        <ele>61.308</ele>
        <time>2016-06-15T16:49:34Z</time>
      </trkpt>
      <trkpt lat="48.02602" lon="-2.70351">
        <ele>58.511</ele>
        <time>2016-06-15T16:49:14Z</time>
      </trkpt>
      <trkpt lat="48.025" lon="-2.70261">
        <ele>61.956</ele>
        <time>2016-06-15T16:48:54Z</time>
      </trkpt>
      <trkpt lat="48.0225" lon="-2.70175">
        <ele>61.054</ele>
        <time>2016-06-15T16:48:34Z</time>
      </trkpt>
      <trkpt lat="48.02052" lon="-2.70072">
        <ele>79.169</ele>
        <time>2016-06-15T16:48:14Z</time>
      </trkpt>
      <trkpt lat="48.01962" lon="-2.69864">
        <ele>78.213</ele>
        <time>2016-06-15T16:47:54Z</time>
      </trkpt>
      <trkpt lat="48.01896" lon="-2.69593">
        <ele>75.291</ele>
        <time>2016-06-15T16:47:34Z</time>
      </trkpt>
      <trkpt lat="48.01838" lon="-2.69475">
        <ele>74.299</ele>
        <time>2016-06-15T16:47:14Z</time>
      </trkpt>
      <trkpt lat="48.01818" lon="-2.69325">
        <ele>71.147</ele>
        <time>2016-06-15T16:46:54Z</time>
      </trkpt>
      <trkpt lat="48.01721" lon="-2.6896">
        <ele>74.092</ele>
        <time>2016-06-15T16:46:34Z</time>
      </trkpt>
      <trkpt lat="48.01692" lon="-2.68819">
        <ele>73.475</ele>
        <time>2016-06-15T16:46:14Z</time>
      </trkpt>
      <trkpt lat="48.01587" lon="-2.6869">
        <ele>71.678</ele>
        <time>2016-06-15T16:45:54Z</time>
      </trkpt>
      <trkpt lat="48.01498" lon="-2.6848">
        <ele>75.308</ele>
        <time>2016-06-15T16:45:34Z</time>
      </trkpt>
      <trkpt lat="48.01405" lon="-2.68557">
        <ele>81.111</ele>
        <time>2016-06-15T16:45:14Z</time>
      </trkpt>
      <trkpt lat="48.01339" lon="-2.68301">
        <ele>69.347</ele>
        <time>2016-06-15T16:44:54Z</time>
      </trkpt>
      <trkpt lat="48.01247" lon="-2.68198">
        <ele>61.326</ele>
        <time>2016-06-15T16:44:34Z</time>
      </trkpt>
      <trkpt lat="48.0121" lon="-2.68214">
        <ele>64.218</ele>
        <time>2016-06-15T16:44:14Z</time>
      </trkpt>
      <trkpt lat="48.01182" lon="-2.68181">
        <ele>66.512</ele>
        <time>2016-06-15T16:43:54Z</time>
      </trkpt>
      <trkpt lat="48.01164" lon="-2.68072">
        <ele>66.76</ele>
        <time>2016-06-15T16:43:34Z</time>
      </trkpt>
      <trkpt lat="48.01151" lon="-2.68018">
        <ele>66.278</ele>
        <time>2016-06-15T16:43:14Z</time>
      </trkpt>
      <trkpt lat="48.01023" lon="-2.67909">
        <ele>66.626</ele>
        <time>2016-06-15T16:42:54Z</time>
      </trkpt>
      <trkpt lat="48.00976" lon="-2.67735">
        <ele>61.511</ele>
        <time>2016-06-15T16:42:34Z</time>
      </trkpt>
      <trkpt lat="48.00966" lon="-2.67619">
        <ele>62.864</ele>
        <time>2016-06-15T16:42:14Z</time>
      </trkpt>
      <trkpt lat="48.00961" lon="-2.67471">
        <ele>56.367</ele>
        <time>2016-06-15T16:41:54Z</time>
      </trkpt>
      <trkpt lat="48.00914" lon="-2.67156">
        <ele>50.108</ele>
        <time>2016-06-15T16:41:34Z</time>
      </trkpt>
      <trkpt lat="48.00908" lon="-2.67003">
        <ele>47.009</ele>
        <time>2016-06-15T16:41:14Z</time>
      </trkpt>
      <trkpt lat="48.00966" lon="-2.66827">
        <ele>45.354</ele>
        <time>2016-06-15T16:40:54Z</time>
      </trkpt>
      <trkpt lat="48.00974" lon="-2.66684">
        <ele>45.414</ele>
        <time>2016-06-15T16:40:34Z</time>
      </trkpt>
      <trkpt lat="48.01073" lon="-2.6639">
        <ele>48.629</ele>
        <time>2016-06-15T16:40:14Z</time>
      </trkpt>
      <trkpt lat="48.01059" lon="-2.66302">
        <ele>48.143</ele>
        <time>2016-06-15T16:39:54Z</time>
      </trkpt>
      <trkpt lat="48.00957" lon="-2.66149">
        <ele>46.651</ele>
        <time>2016-06-15T16:39:34Z</time>
      </trkpt>
      <trkpt lat="48.00915" lon="-2.65999">
        <ele>47.069</ele>
        <time>2016-06-15T16:39:14Z</time>
      </trkpt>
      <trkpt lat="48.00539" lon="-2.65894">
        <ele>48.697</ele>
        <time>2016-06-15T16:38:54Z</time>
      </trkpt>
      <trkpt lat="48.00501" lon="-2.6583">
        <ele>48.842</ele>
        <time>2016-06-15T16:38:34Z</time>
      </trkpt>
      <trkpt lat="48.00403" lon="-2.65445">
        <ele>46.525</ele>
        <time>2016-06-15T16:38:14Z</time>
      </trkpt>
      <trkpt lat="48.0032" lon="-2.65233">
        <ele>46.028</ele>
        <time>2016-06-15T16:37:54Z</time>
      </trkpt>
      <trkpt lat="48.00258" lon="-2.65175">
        <ele>46.508</ele>
        <time>2016-06-15T16:37:34Z</time>
      </trkpt>
      <trkpt lat="48.00196" lon="-2.65171">
        <ele>45.911</ele>
        <time>2016-06-15T16:37:14Z</time>
      </trkpt>
      <trkpt lat="47.99896" lon="-2.65304">
        <ele>44.447</ele>
        <time>2016-06-15T16:36:54Z</time>
      </trkpt>
      <trkpt lat="47.9986" lon="-2.65173">
        <ele>50.426</ele>
        <time>2016-06-15T16:36:34Z</time>
      </trkpt>
      <trkpt lat="47.99734" lon="-2.65248">
        <ele>46.564</ele>
        <time>2016-06-15T16:36:14Z</time>
      </trkpt>
      <trkpt lat="47.99593" lon="-2.65233">
        <ele>45.978</ele>
        <time>2016-06-15T16:35:54Z</time>
      </trkpt>
      <trkpt lat="47.99406" lon="-2.65261">
        <ele>45.746</ele>
        <time>2016-06-15T16:35:34Z</time>
      </trkpt>
      <trkpt lat="47.99213" lon="-2.65145">
        <ele>45.124</ele>
        <time>2016-06-15T16:35:14Z</time>
      </trkpt>
      <trkpt lat="47.98902" lon="-2.64847">
        <ele>48.022</ele>
        <time>2016-06-15T16:34:54Z</time>
      </trkpt>
      <trkpt lat="47.98802" lon="-2.64671">
        <ele>49.297</ele>
        <time>2016-06-15T16:34:34Z</time>
      </trkpt>
      <trkpt lat="47.98747" lon="-2.646">
        <ele>49.71</ele>
        <time>2016-06-15T16:34:14Z</time>
      </trkpt>
      <trkpt lat="47.98694" lon="-2.64452">
        <ele>50.713</ele>
        <time>2016-06-15T16:33:54Z</time>
      </trkpt>
      <trkpt lat="47.98644" lon="-2.64364">
        <ele>49.408</ele>
        <time>2016-06-15T16:33:34Z</time>
      </trkpt>
      <trkpt lat="47.98566" lon="-2.63984">
        <ele>47.825</ele>
        <time>2016-06-15T16:33:14Z</time>
      </trkpt>
      <trkpt lat="47.98472" lon="-2.6368">
        <ele>49.905</ele>
        <time>2016-06-15T16:32:54Z</time>
      </trkpt>
      <trkpt lat="47.98387" lon="-2.63304">
        <ele>50.779</ele>
        <time>2016-06-15T16:32:34Z</time>
      </trkpt>
      <trkpt lat="47.98377" lon="-2.63205">
        <ele>53.044</ele>
        <time>2016-06-15T16:32:14Z</time>
      </trkpt>
      <trkpt lat="47.98299" lon="-2.62935">
        <ele>47.138</ele>
        <time>2016-06-15T16:31:54Z</time>
      </trkpt>
      <trkpt lat="47.98245" lon="-2.62772">
        <ele>45.816</ele>
        <time>2016-06-15T16:31:34Z</time>
      </trkpt>
      <trkpt lat="47.98098" lon="-2.6251">
        <ele>42.954</ele>
        <time>2016-06-15T16:31:14Z</time>
      </trkpt>
      <trkpt lat="47.97907" lon="-2.62295">
        <ele>44.342</ele>
        <time>2016-06-15T16:30:54Z</time>
      </trkpt>
      <trkpt lat="47.97857" lon="-2.62366">
        <ele>40.747</ele>
        <time>2016-06-15T16:30:34Z</time>
      </trkpt>
      <trkpt lat="47.97822" lon="-2.62353">
        <ele>40.64</ele>
        <time>2016-06-15T16:30:14Z</time>
      </trkpt>
      <trkpt lat="47.97775" lon="-2.62512">
        <ele>39.683</ele>
        <time>2016-06-15T16:29:54Z</time>
      </trkpt>
      <trkpt lat="47.97601" lon="-2.62712">
        <ele>41.608</ele>
        <time>2016-06-15T16:29:34Z</time>
      </trkpt>
      <trkpt lat="47.97508" lon="-2.62742">
        <ele>48.625</ele>
        <time>2016-06-15T16:29:14Z</time>
      </trkpt>
      <trkpt lat="47.973" lon="-2.62925">
        <ele>55.305</ele>
        <time>2020-12-30T17:05:23Z</time>
      </trkpt>
      <trkpt lat="47.97232" lon="-2.62783">
        <ele>52.879</ele>
        <time>2020-12-30T17:05:03Z</time>
      </trkpt>
      <trkpt lat="47.97056" lon="-2.62842">
        <ele>66.098</ele>
        <time>2020-12-30T17:04:43Z</time>
      </trkpt>
      <trkpt lat="47.97001" lon="-2.6297">
        <ele>69.082</ele>
        <time>2020-12-30T17:04:23Z</time>
      </trkpt>
      <trkpt lat="47.96881" lon="-2.63051">
        <ele>71.96</ele>
        <time>2020-12-30T17:04:03Z</time>
      </trkpt>
      <trkpt lat="47.96864" lon="-2.63012">
        <ele>71.998</ele>
        <time>2016-06-15T16:27:54Z</time>
      </trkpt>
      <trkpt lat="47.968" lon="-2.62989">
        <ele>72.786</ele>
        <time>2016-06-15T16:27:34Z</time>
      </trkpt>
      <trkpt lat="47.96774" lon="-2.63115">
        <ele>72.771</ele>
        <time>2016-06-15T16:27:14Z</time>
      </trkpt>
      <trkpt lat="47.96735" lon="-2.63167">
        <ele>66.924</ele>
        <time>2016-06-15T16:26:54Z</time>
      </trkpt>
      <trkpt lat="47.96581" lon="-2.6318">
        <ele>47.397</ele>
        <time>2016-06-15T16:26:34Z</time>
      </trkpt>
      <trkpt lat="47.96548" lon="-2.62948">
        <ele>47.208</ele>
        <time>2016-06-15T16:26:14Z</time>
      </trkpt>
      <trkpt lat="47.9664" lon="-2.62755">
        <ele>44.319</ele>
        <time>2016-06-15T16:25:54Z</time>
      </trkpt>
      <trkpt lat="47.96679" lon="-2.62577">
        <ele>38.809</ele>
        <time>2016-06-15T16:25:34Z</time>
      </trkpt>
      <trkpt lat="47.96617" lon="-2.62578">
        <ele>38.9</ele>
      </trkpt>
      <trkpt lat="47.96569" lon="-2.62559">
        <ele>38.8</ele>
      </trkpt>
      <trkpt lat="47.96527" lon="-2.6257">
        <ele>40.619</ele>
        <time>2016-06-15T16:25:14Z</time>
      </trkpt>
      <trkpt lat="47.96514" lon="-2.62615">
        <ele>41.584</ele>
        <time>2016-06-15T16:24:54Z</time>
      </trkpt>
      <trkpt lat="47.96456" lon="-2.62604">
        <ele>44.398</ele>
        <time>2016-06-15T16:24:34Z</time>
      </trkpt>
      <trkpt lat="47.96387" lon="-2.62557">
        <ele>45.436</ele>
        <time>2016-06-15T16:24:14Z</time>
      </trkpt>
      <trkpt lat="47.96185" lon="-2.62536">
        <ele>52.914</ele>
        <time>2016-06-15T16:23:54Z</time>
      </trkpt>
      <trkpt lat="47.96017" lon="-2.62388">
        <ele>53.192</ele>
        <time>2020-12-30T16:59:23Z</time>
      </trkpt>
      <trkpt lat="47.95947" lon="-2.62351">
        <ele>54.237</ele>
        <time>2020-12-30T16:59:03Z</time>
      </trkpt>
      <trkpt lat="47.95876" lon="-2.62272">
        <ele>54.31</ele>
        <time>2016-06-15T16:22:54Z</time>
      </trkpt>
      <trkpt lat="47.95768" lon="-2.62098">
        <ele>49.163</ele>
        <time>2016-06-15T16:22:34Z</time>
      </trkpt>
      <trkpt lat="47.95718" lon="-2.6195">
        <ele>56.408</ele>
        <time>2016-06-15T16:22:14Z</time>
      </trkpt>
      <trkpt lat="47.95709" lon="-2.61847">
        <ele>56.813</ele>
        <time>2016-06-15T16:21:54Z</time>
      </trkpt>
      <trkpt lat="47.95729" lon="-2.61308">
        <ele>48.585</ele>
        <time>2016-06-15T16:21:34Z</time>
      </trkpt>
      <trkpt lat="47.95807" lon="-2.60748">
        <ele>41.873</ele>
        <time>2016-06-15T16:21:14Z</time>
      </trkpt>
      <trkpt lat="47.95808" lon="-2.60684">
        <ele>42.574</ele>
        <time>2016-06-15T16:20:34Z</time>
      </trkpt>
      <trkpt lat="47.95871" lon="-2.60373">
        <ele>41.942</ele>
        <time>2016-06-15T16:20:14Z</time>
      </trkpt>
      <trkpt lat="47.9592" lon="-2.59665">
        <ele>38.84</ele>
        <time>2016-06-15T16:19:54Z</time>
      </trkpt>
      <trkpt lat="47.95909" lon="-2.59453">
        <ele>37.1</ele>
        <time>2020-12-30T16:55:23Z</time>
      </trkpt>
      <trkpt lat="47.95935" lon="-2.59425">
        <ele>36.6</ele>
      </trkpt>
      <trkpt lat="47.9593" lon="-2.5935">
        <ele>36.8</ele>
      </trkpt>
      <trkpt lat="47.96005" lon="-2.59359">
        <ele>35.943</ele>
        <time>2020-12-30T16:55:03Z</time>
      </trkpt>
      <trkpt lat="47.96018" lon="-2.59152">
        <ele>32.266</ele>
        <time>2016-06-15T16:17:54Z</time>
      </trkpt>
      <trkpt lat="47.96005" lon="-2.59088">
        <ele>34.559</ele>
        <time>2016-06-15T16:17:34Z</time>
      </trkpt>
      <trkpt lat="47.95912" lon="-2.5894">
        <ele>33.008</ele>
        <time>2016-06-15T16:17:14Z</time>
      </trkpt>
      <trkpt lat="47.959" lon="-2.58858">
        <ele>31.818</ele>
        <time>2016-06-15T16:16:54Z</time>
      </trkpt>
      <trkpt lat="47.95817" lon="-2.58585">
        <ele>37.817</ele>
        <time>2016-06-15T16:16:34Z</time>
      </trkpt>
      <trkpt lat="47.95769" lon="-2.58476">
        <ele>36.136</ele>
        <time>2016-06-15T16:16:14Z</time>
      </trkpt>
      <trkpt lat="47.95728" lon="-2.5842">
        <ele>37.248</ele>
        <time>2016-06-15T16:15:54Z</time>
      </trkpt>
      <trkpt lat="47.95383" lon="-2.57862">
        <ele>33.342</ele>
        <time>2016-06-15T16:15:34Z</time>
      </trkpt>
      <trkpt lat="47.95295" lon="-2.57386">
        <ele>33.548</ele>
        <time>2016-06-15T16:14:54Z</time>
      </trkpt>
      <trkpt lat="47.95321" lon="-2.5727">
        <ele>36.676</ele>
        <time>2016-06-15T16:14:34Z</time>
      </trkpt>
      <trkpt lat="47.95327" lon="-2.57137">
        <ele>31.871</ele>
        <time>2016-06-15T16:14:14Z</time>
      </trkpt>
      <trkpt lat="47.95364" lon="-2.56933">
        <ele>33.544</ele>
        <time>2016-06-15T16:13:54Z</time>
      </trkpt>
      <trkpt lat="47.95371" lon="-2.56676">
        <ele>35.108</ele>
        <time>2016-06-15T16:13:14Z</time>
      </trkpt>
      <trkpt lat="47.95401" lon="-2.56491">
        <ele>34.615</ele>
        <time>2016-06-15T16:12:54Z</time>
      </trkpt>
      <trkpt lat="47.95348" lon="-2.56193">
        <ele>32.687</ele>
        <time>2016-06-15T16:12:34Z</time>
      </trkpt>
      <trkpt lat="47.95302" lon="-2.56077">
        <ele>34.217</ele>
        <time>2016-06-15T16:12:14Z</time>
      </trkpt>
      <trkpt lat="47.95219" lon="-2.55987">
        <ele>33.939</ele>
        <time>2016-06-15T16:11:54Z</time>
      </trkpt>
      <trkpt lat="47.95166" lon="-2.55665">
        <ele>33.263</ele>
        <time>2016-06-15T16:11:34Z</time>
      </trkpt>
      <trkpt lat="47.95241" lon="-2.55521">
        <ele>30.031</ele>
        <time>2016-06-15T16:11:14Z</time>
      </trkpt>
      <trkpt lat="47.95283" lon="-2.55184">
        <ele>32.5</ele>
        <time>2016-06-15T16:10:54Z</time>
      </trkpt>
      <trkpt lat="47.95273" lon="-2.5495">
        <ele>33.3</ele>
      </trkpt>
      <trkpt lat="47.95291" lon="-2.54942">
        <ele>37.9</ele>
      </trkpt>
      <trkpt lat="47.95295" lon="-2.548">
        <ele>49.3</ele>
      </trkpt>
      <trkpt lat="47.95351" lon="-2.54794">
        <ele>54.3</ele>
      </trkpt>
      <trkpt lat="47.95357" lon="-2.54762">
        <ele>54.7</ele>
      </trkpt>
      <trkpt lat="47.95479" lon="-2.54759">
        <ele>65.8</ele>
      </trkpt>
      <trkpt lat="47.95478" lon="-2.54732">
        <ele>65.4</ele>
      </trkpt>
    </trkseg>
  </trk>
</gpx>